sensor_id;sensor_type;location;lat;lon;timestamp;temperature;humidity
10654;DHT22;5375;51.250;6.776;2023-05-07T00:02:24;20.20;52.70
10654;DHT22;5375;51.250;6.776;2023-05-07T00:04:50;20.20;52.70
10654;DHT22;5375;51.250;6.776;2023-05-07T00:07:17;20.20;52.70
10654;DHT22;5375;51.250;6.776;2023-05-07T00:09:43;20.20;52.70
10654;DHT22;5375;51.250;6.776;2023-05-07T00:12:08;20.20;52.70
10654;DHT22;5375;51.250;6.776;2023-05-07T00:14:34;20.20;52.80
10654;DHT22;5375;51.250;6.776;2023-05-07T00:17:00;20.20;52.80
10654;DHT22;5375;51.250;6.776;2023-05-07T00:21:52;20.20;52.30
10654;DHT22;5375;51.250;6.776;2023-05-07T00:24:19;20.20;52.90
10654;DHT22;5375;51.250;6.776;2023-05-07T00:26:45;20.20;52.90
10654;DHT22;5375;51.250;6.776;2023-05-07T00:29:11;20.20;52.90
10654;DHT22;5375;51.250;6.776;2023-05-07T00:31:36;20.20;53.00
10654;DHT22;5375;51.250;6.776;2023-05-07T00:34:02;20.20;53.00
10654;DHT22;5375;51.250;6.776;2023-05-07T00:36:27;20.20;53.00
10654;DHT22;5375;51.250;6.776;2023-05-07T00:38:54;20.20;53.00
10654;DHT22;5375;51.250;6.776;2023-05-07T00:41:20;20.20;53.10
10654;DHT22;5375;51.250;6.776;2023-05-07T00:43:46;20.20;53.20
10654;DHT22;5375;51.250;6.776;2023-05-07T00:46:13;20.20;53.10
10654;DHT22;5375;51.250;6.776;2023-05-07T00:48:40;20.20;53.20
10654;DHT22;5375;51.250;6.776;2023-05-07T00:51:06;20.20;53.20
10654;DHT22;5375;51.250;6.776;2023-05-07T00:53:32;20.20;53.20
10654;DHT22;5375;51.250;6.776;2023-05-07T00:55:58;20.20;53.30
10654;DHT22;5375;51.250;6.776;2023-05-07T00:58:23;20.20;53.30
10654;DHT22;5375;51.250;6.776;2023-05-07T01:00:50;20.30;53.30
10654;DHT22;5375;51.250;6.776;2023-05-07T01:03:15;20.20;53.30
10654;DHT22;5375;51.250;6.776;2023-05-07T01:05:42;20.20;52.70
10654;DHT22;5375;51.250;6.776;2023-05-07T01:08:08;20.20;53.30
10654;DHT22;5375;51.250;6.776;2023-05-07T01:10:34;20.20;53.30
10654;DHT22;5375;51.250;6.776;2023-05-07T01:13:00;20.20;53.30
10654;DHT22;5375;51.250;6.776;2023-05-07T01:15:26;20.20;53.40
10654;DHT22;5375;51.250;6.776;2023-05-07T01:17:52;20.20;53.40
10654;DHT22;5375;51.250;6.776;2023-05-07T01:20:18;20.20;53.40
10654;DHT22;5375;51.250;6.776;2023-05-07T01:22:44;20.20;53.50
10654;DHT22;5375;51.250;6.776;2023-05-07T01:25:10;20.20;53.50
10654;DHT22;5375;51.250;6.776;2023-05-07T01:27:36;20.20;53.60
10654;DHT22;5375;51.250;6.776;2023-05-07T01:30:06;20.20;53.60
10654;DHT22;5375;51.250;6.776;2023-05-07T01:32:33;20.20;53.60
10654;DHT22;5375;51.250;6.776;2023-05-07T01:35:01;20.20;53.60
10654;DHT22;5375;51.250;6.776;2023-05-07T01:37:28;20.20;53.70
10654;DHT22;5375;51.250;6.776;2023-05-07T01:39:54;20.20;53.70
10654;DHT22;5375;51.250;6.776;2023-05-07T01:42:21;20.20;53.70
10654;DHT22;5375;51.250;6.776;2023-05-07T01:44:47;20.20;53.80
10654;DHT22;5375;51.250;6.776;2023-05-07T01:47:14;20.20;53.80
10654;DHT22;5375;51.250;6.776;2023-05-07T01:49:40;20.20;53.80
10654;DHT22;5375;51.250;6.776;2023-05-07T01:52:06;20.20;53.80
10654;DHT22;5375;51.250;6.776;2023-05-07T01:54:31;20.20;53.90
10654;DHT22;5375;51.250;6.776;2023-05-07T01:59:23;20.20;53.30
10654;DHT22;5375;51.250;6.776;2023-05-07T02:01:49;20.20;54.60
10654;DHT22;5375;51.250;6.776;2023-05-07T02:04:14;20.20;54.00
10654;DHT22;5375;51.250;6.776;2023-05-07T02:06:40;20.20;54.00
10654;DHT22;5375;51.250;6.776;2023-05-07T02:09:06;20.20;54.00
10654;DHT22;5375;51.250;6.776;2023-05-07T02:11:31;20.20;54.00
10654;DHT22;5375;51.250;6.776;2023-05-07T02:13:57;20.20;54.00
10654;DHT22;5375;51.250;6.776;2023-05-07T02:16:23;20.20;54.00
10654;DHT22;5375;51.250;6.776;2023-05-07T02:18:49;20.20;54.00
10654;DHT22;5375;51.250;6.776;2023-05-07T02:21:15;20.20;54.10
10654;DHT22;5375;51.250;6.776;2023-05-07T02:23:40;20.20;54.10
10654;DHT22;5375;51.250;6.776;2023-05-07T02:26:06;20.20;54.10
10654;DHT22;5375;51.250;6.776;2023-05-07T02:28:32;20.20;54.10
10654;DHT22;5375;51.250;6.776;2023-05-07T02:30:57;20.20;54.10
10654;DHT22;5375;51.250;6.776;2023-05-07T02:33:26;20.20;54.10
10654;DHT22;5375;51.250;6.776;2023-05-07T02:35:52;20.20;54.20
10654;DHT22;5375;51.250;6.776;2023-05-07T02:38:17;20.20;54.20
10654;DHT22;5375;51.250;6.776;2023-05-07T02:40:43;20.20;54.20
10654;DHT22;5375;51.250;6.776;2023-05-07T02:43:09;20.20;54.20
10654;DHT22;5375;51.250;6.776;2023-05-07T02:45:35;20.20;54.20
10654;DHT22;5375;51.250;6.776;2023-05-07T02:48:03;20.20;54.30
10654;DHT22;5375;51.250;6.776;2023-05-07T02:50:28;20.20;54.30
10654;DHT22;5375;51.250;6.776;2023-05-07T02:52:54;20.20;54.20
10654;DHT22;5375;51.250;6.776;2023-05-07T02:55:20;20.20;54.20
10654;DHT22;5375;51.250;6.776;2023-05-07T02:57:46;20.20;54.80
10654;DHT22;5375;51.250;6.776;2023-05-07T03:00:16;20.20;54.20
10654;DHT22;5375;51.250;6.776;2023-05-07T03:02:43;20.20;54.10
10654;DHT22;5375;51.250;6.776;2023-05-07T03:05:18;20.20;54.10
10654;DHT22;5375;51.250;6.776;2023-05-07T03:10:12;20.20;54.30
10654;DHT22;5375;51.250;6.776;2023-05-07T03:12:38;20.20;54.00
10654;DHT22;5375;51.250;6.776;2023-05-07T03:15:03;20.20;54.00
10654;DHT22;5375;51.250;6.776;2023-05-07T03:17:29;20.20;54.00
10654;DHT22;5375;51.250;6.776;2023-05-07T03:19:55;20.20;54.00
10654;DHT22;5375;51.250;6.776;2023-05-07T03:22:20;20.20;54.00
10654;DHT22;5375;51.250;6.776;2023-05-07T03:24:46;20.20;53.90
10654;DHT22;5375;51.250;6.776;2023-05-07T03:27:12;20.20;53.90
10654;DHT22;5375;51.250;6.776;2023-05-07T03:29:37;20.20;53.90
10654;DHT22;5375;51.250;6.776;2023-05-07T03:32:03;20.20;53.80
10654;DHT22;5375;51.250;6.776;2023-05-07T03:34:29;20.20;53.80
10654;DHT22;5375;51.250;6.776;2023-05-07T03:36:54;20.20;53.20
10654;DHT22;5375;51.250;6.776;2023-05-07T03:39:21;20.20;53.80
10654;DHT22;5375;51.250;6.776;2023-05-07T03:41:47;20.30;53.80
10654;DHT22;5375;51.250;6.776;2023-05-07T03:44:12;20.30;53.80
10654;DHT22;5375;51.250;6.776;2023-05-07T03:46:38;20.20;53.80
10654;DHT22;5375;51.250;6.776;2023-05-07T03:49:04;20.30;53.80
10654;DHT22;5375;51.250;6.776;2023-05-07T03:51:30;20.20;53.80
10654;DHT22;5375;51.250;6.776;2023-05-07T03:53:55;20.30;53.80
10654;DHT22;5375;51.250;6.776;2023-05-07T03:56:23;20.20;53.80
10654;DHT22;5375;51.250;6.776;2023-05-07T03:58:52;20.20;53.70
10654;DHT22;5375;51.250;6.776;2023-05-07T04:01:17;20.20;53.70
10654;DHT22;5375;51.250;6.776;2023-05-07T04:03:43;20.30;53.70
10654;DHT22;5375;51.250;6.776;2023-05-07T04:06:08;20.30;53.70
10654;DHT22;5375;51.250;6.776;2023-05-07T04:08:34;20.30;53.70
10654;DHT22;5375;51.250;6.776;2023-05-07T04:11:00;20.30;53.60
10654;DHT22;5375;51.250;6.776;2023-05-07T04:13:25;20.30;53.60
10654;DHT22;5375;51.250;6.776;2023-05-07T04:15:52;20.30;53.60
10654;DHT22;5375;51.250;6.776;2023-05-07T04:18:18;20.30;53.60
10654;DHT22;5375;51.250;6.776;2023-05-07T04:20:43;20.30;53.60
10654;DHT22;5375;51.250;6.776;2023-05-07T04:23:09;20.30;53.60
10654;DHT22;5375;51.250;6.776;2023-05-07T04:25:35;21.70;54.30
10654;DHT22;5375;51.250;6.776;2023-05-07T04:28:01;20.30;53.60
10654;DHT22;5375;51.250;6.776;2023-05-07T04:30:27;20.30;53.60
10654;DHT22;5375;51.250;6.776;2023-05-07T04:32:52;20.30;53.60
10654;DHT22;5375;51.250;6.776;2023-05-07T04:35:18;20.30;53.70
10654;DHT22;5375;51.250;6.776;2023-05-07T04:37:44;20.30;53.60
10654;DHT22;5375;51.250;6.776;2023-05-07T04:40:10;20.30;53.60
10654;DHT22;5375;51.250;6.776;2023-05-07T04:42:35;20.30;53.70
10654;DHT22;5375;51.250;6.776;2023-05-07T04:45:02;20.30;53.10
10654;DHT22;5375;51.250;6.776;2023-05-07T04:47:28;20.30;53.70
10654;DHT22;5375;51.250;6.776;2023-05-07T04:49:53;20.30;53.70
10654;DHT22;5375;51.250;6.776;2023-05-07T04:52:19;20.30;53.80
10654;DHT22;5375;51.250;6.776;2023-05-07T04:54:45;20.30;53.90
10654;DHT22;5375;51.250;6.776;2023-05-07T04:57:11;20.40;53.90
10654;DHT22;5375;51.250;6.776;2023-05-07T04:59:37;20.40;53.80
10654;DHT22;5375;51.250;6.776;2023-05-07T05:02:02;20.30;53.70
10654;DHT22;5375;51.250;6.776;2023-05-07T05:04:29;20.40;53.80
10654;DHT22;5375;51.250;6.776;2023-05-07T05:09:39;20.30;54.00
10654;DHT22;5375;51.250;6.776;2023-05-07T05:12:05;20.40;53.80
10654;DHT22;5375;51.250;6.776;2023-05-07T05:14:32;20.40;53.80
10654;DHT22;5375;51.250;6.776;2023-05-07T05:16:58;20.30;53.80
10654;DHT22;5375;51.250;6.776;2023-05-07T05:19:23;20.30;53.80
10654;DHT22;5375;51.250;6.776;2023-05-07T05:21:49;20.30;53.80
10654;DHT22;5375;51.250;6.776;2023-05-07T05:24:14;20.40;53.30
10654;DHT22;5375;51.250;6.776;2023-05-07T05:26:40;20.30;53.80
10654;DHT22;5375;51.250;6.776;2023-05-07T05:29:06;20.30;53.80
10654;DHT22;5375;51.250;6.776;2023-05-07T05:31:33;20.30;53.80
10654;DHT22;5375;51.250;6.776;2023-05-07T05:33:59;20.30;53.80
10654;DHT22;5375;51.250;6.776;2023-05-07T05:36:24;20.30;53.80
10654;DHT22;5375;51.250;6.776;2023-05-07T05:38:51;20.30;53.80
10654;DHT22;5375;51.250;6.776;2023-05-07T05:41:16;20.30;53.80
10654;DHT22;5375;51.250;6.776;2023-05-07T05:43:42;20.30;53.90
10654;DHT22;5375;51.250;6.776;2023-05-07T05:46:10;20.30;53.80
10654;DHT22;5375;51.250;6.776;2023-05-07T05:48:37;20.30;53.30
10654;DHT22;5375;51.250;6.776;2023-05-07T05:53:28;20.30;53.20
10654;DHT22;5375;51.250;6.776;2023-05-07T05:55:54;20.30;53.80
10654;DHT22;5375;51.250;6.776;2023-05-07T05:58:20;20.30;53.80
10654;DHT22;5375;51.250;6.776;2023-05-07T06:00:46;20.30;53.80
10654;DHT22;5375;51.250;6.776;2023-05-07T06:03:13;20.30;53.20
10654;DHT22;5375;51.250;6.776;2023-05-07T06:05:39;20.30;53.80
10654;DHT22;5375;51.250;6.776;2023-05-07T06:08:04;20.30;53.80
10654;DHT22;5375;51.250;6.776;2023-05-07T06:10:30;20.30;53.80
10654;DHT22;5375;51.250;6.776;2023-05-07T06:12:57;20.30;53.80
10654;DHT22;5375;51.250;6.776;2023-05-07T06:15:23;20.30;53.80
10654;DHT22;5375;51.250;6.776;2023-05-07T06:17:49;20.30;53.90
10654;DHT22;5375;51.250;6.776;2023-05-07T06:20:16;20.30;53.80
10654;DHT22;5375;51.250;6.776;2023-05-07T06:22:42;20.30;53.90
10654;DHT22;5375;51.250;6.776;2023-05-07T06:25:08;20.30;53.80
10654;DHT22;5375;51.250;6.776;2023-05-07T06:27:34;20.30;53.80
10654;DHT22;5375;51.250;6.776;2023-05-07T06:30:00;20.30;53.80
10654;DHT22;5375;51.250;6.776;2023-05-07T06:32:25;20.30;53.80
10654;DHT22;5375;51.250;6.776;2023-05-07T06:34:51;20.30;53.80
10654;DHT22;5375;51.250;6.776;2023-05-07T06:37:20;20.30;53.80
10654;DHT22;5375;51.250;6.776;2023-05-07T06:39:51;20.30;53.80
10654;DHT22;5375;51.250;6.776;2023-05-07T06:42:16;20.30;53.30
10654;DHT22;5375;51.250;6.776;2023-05-07T06:44:42;20.30;53.90
10654;DHT22;5375;51.250;6.776;2023-05-07T06:47:08;20.30;53.90
10654;DHT22;5375;51.250;6.776;2023-05-07T06:49:33;20.30;53.90
10654;DHT22;5375;51.250;6.776;2023-05-07T06:51:59;20.30;53.90
10654;DHT22;5375;51.250;6.776;2023-05-07T06:54:25;20.30;53.90
10654;DHT22;5375;51.250;6.776;2023-05-07T06:56:50;20.30;53.90
10654;DHT22;5375;51.250;6.776;2023-05-07T06:59:19;20.30;53.90
10654;DHT22;5375;51.250;6.776;2023-05-07T07:01:44;20.30;53.90
10654;DHT22;5375;51.250;6.776;2023-05-07T07:04:10;20.30;53.90
10654;DHT22;5375;51.250;6.776;2023-05-07T07:06:35;20.30;53.90
10654;DHT22;5375;51.250;6.776;2023-05-07T07:09:01;20.30;53.90
10654;DHT22;5375;51.250;6.776;2023-05-07T07:11:27;20.30;53.90
10654;DHT22;5375;51.250;6.776;2023-05-07T07:13:54;20.40;54.20
10654;DHT22;5375;51.250;6.776;2023-05-07T07:16:22;20.40;54.20
10654;DHT22;5375;51.250;6.776;2023-05-07T07:18:50;20.40;54.20
10654;DHT22;5375;51.250;6.776;2023-05-07T07:21:19;20.40;54.20
10654;DHT22;5375;51.250;6.776;2023-05-07T07:23:45;20.40;54.10
10654;DHT22;5375;51.250;6.776;2023-05-07T07:26:12;20.40;54.10
10654;DHT22;5375;51.250;6.776;2023-05-07T07:28:45;20.40;54.10
10654;DHT22;5375;51.250;6.776;2023-05-07T07:31:12;20.40;54.00
10654;DHT22;5375;51.250;6.776;2023-05-07T07:33:39;20.40;54.10
10654;DHT22;5375;51.250;6.776;2023-05-07T07:36:07;20.40;54.10
10654;DHT22;5375;51.250;6.776;2023-05-07T07:38:36;20.40;54.00
10654;DHT22;5375;51.250;6.776;2023-05-07T07:41:03;20.40;54.00
10654;DHT22;5375;51.250;6.776;2023-05-07T07:43:30;20.40;54.00
10654;DHT22;5375;51.250;6.776;2023-05-07T07:45:57;20.40;53.90
10654;DHT22;5375;51.250;6.776;2023-05-07T07:48:25;20.40;53.90
10654;DHT22;5375;51.250;6.776;2023-05-07T07:50:54;20.40;53.90
10654;DHT22;5375;51.250;6.776;2023-05-07T07:53:21;20.40;54.00
10654;DHT22;5375;51.250;6.776;2023-05-07T07:55:49;20.40;53.90
10654;DHT22;5375;51.250;6.776;2023-05-07T07:58:16;20.40;53.90
10654;DHT22;5375;51.250;6.776;2023-05-07T08:00:45;20.40;53.90
10654;DHT22;5375;51.250;6.776;2023-05-07T08:03:13;20.40;53.90
10654;DHT22;5375;51.250;6.776;2023-05-07T08:05:42;20.40;53.90
10654;DHT22;5375;51.250;6.776;2023-05-07T08:08:10;20.40;53.90
10654;DHT22;5375;51.250;6.776;2023-05-07T08:10:37;20.40;53.90
10654;DHT22;5375;51.250;6.776;2023-05-07T08:13:05;20.40;53.90
10654;DHT22;5375;51.250;6.776;2023-05-07T08:15:34;20.40;53.90
10654;DHT22;5375;51.250;6.776;2023-05-07T08:18:02;20.40;53.80
10654;DHT22;5375;51.250;6.776;2023-05-07T08:20:30;20.40;53.80
10654;DHT22;5375;51.250;6.776;2023-05-07T08:22:56;20.40;54.50
10654;DHT22;5375;51.250;6.776;2023-05-07T08:25:24;20.40;53.80
10654;DHT22;5375;51.250;6.776;2023-05-07T08:27:51;20.40;53.80
10654;DHT22;5375;51.250;6.776;2023-05-07T08:30:19;20.40;53.80
10654;DHT22;5375;51.250;6.776;2023-05-07T08:32:46;20.40;53.80
10654;DHT22;5375;51.250;6.776;2023-05-07T08:35:14;20.40;53.80
10654;DHT22;5375;51.250;6.776;2023-05-07T08:37:40;20.40;53.80
10654;DHT22;5375;51.250;6.776;2023-05-07T08:40:08;20.40;53.70
10654;DHT22;5375;51.250;6.776;2023-05-07T08:42:39;20.40;53.80
10654;DHT22;5375;51.250;6.776;2023-05-07T08:45:12;20.40;53.70
10654;DHT22;5375;51.250;6.776;2023-05-07T08:47:44;20.40;53.70
10654;DHT22;5375;51.250;6.776;2023-05-07T08:50:14;20.40;53.70
10654;DHT22;5375;51.250;6.776;2023-05-07T08:52:42;20.40;53.70
10654;DHT22;5375;51.250;6.776;2023-05-07T08:55:10;20.40;53.70
10654;DHT22;5375;51.250;6.776;2023-05-07T08:57:37;20.40;53.70
10654;DHT22;5375;51.250;6.776;2023-05-07T09:00:07;20.40;53.70
10654;DHT22;5375;51.250;6.776;2023-05-07T09:02:35;20.40;53.70
10654;DHT22;5375;51.250;6.776;2023-05-07T09:05:03;20.40;53.70
10654;DHT22;5375;51.250;6.776;2023-05-07T09:10:52;20.40;53.60
10654;DHT22;5375;51.250;6.776;2023-05-07T09:13:18;20.40;53.80
10654;DHT22;5375;51.250;6.776;2023-05-07T09:15:43;20.40;53.60
10654;DHT22;5375;51.250;6.776;2023-05-07T09:18:09;20.40;53.60
10654;DHT22;5375;51.250;6.776;2023-05-07T09:20:37;20.40;54.20
10654;DHT22;5375;51.250;6.776;2023-05-07T09:23:03;20.40;53.60
10654;DHT22;5375;51.250;6.776;2023-05-07T09:28:02;20.40;53.90
10654;DHT22;5375;51.250;6.776;2023-05-07T09:30:32;20.40;53.60
10654;DHT22;5375;51.250;6.776;2023-05-07T09:32:58;20.40;53.60
10654;DHT22;5375;51.250;6.776;2023-05-07T09:35:25;20.40;53.60
10654;DHT22;5375;51.250;6.776;2023-05-07T09:37:53;20.40;53.60
10654;DHT22;5375;51.250;6.776;2023-05-07T09:40:21;20.40;53.60
10654;DHT22;5375;51.250;6.776;2023-05-07T09:42:48;20.40;53.60
10654;DHT22;5375;51.250;6.776;2023-05-07T09:45:15;20.40;53.60
10654;DHT22;5375;51.250;6.776;2023-05-07T09:47:42;20.50;53.60
10654;DHT22;5375;51.250;6.776;2023-05-07T09:50:10;20.40;53.50
10654;DHT22;5375;51.250;6.776;2023-05-07T09:52:39;20.40;53.50
10654;DHT22;5375;51.250;6.776;2023-05-07T09:55:06;20.40;53.50
10654;DHT22;5375;51.250;6.776;2023-05-07T09:57:33;20.50;53.60
10654;DHT22;5375;51.250;6.776;2023-05-07T09:59:59;20.40;53.50
10654;DHT22;5375;51.250;6.776;2023-05-07T10:02:29;20.50;53.60
10654;DHT22;5375;51.250;6.776;2023-05-07T10:04:56;20.50;53.60
10654;DHT22;5375;51.250;6.776;2023-05-07T10:07:22;20.40;54.10
10654;DHT22;5375;51.250;6.776;2023-05-07T10:09:49;20.50;53.50
10654;DHT22;5375;51.250;6.776;2023-05-07T10:12:16;20.50;53.50
10654;DHT22;5375;51.250;6.776;2023-05-07T10:14:42;20.50;53.50
10654;DHT22;5375;51.250;6.776;2023-05-07T10:17:09;20.40;53.40
10654;DHT22;5375;51.250;6.776;2023-05-07T10:19:37;20.50;53.50
10654;DHT22;5375;51.250;6.776;2023-05-07T10:22:05;20.50;53.50
10654;DHT22;5375;51.250;6.776;2023-05-07T10:24:35;20.50;53.50
10654;DHT22;5375;51.250;6.776;2023-05-07T10:27:04;20.50;53.50
10654;DHT22;5375;51.250;6.776;2023-05-07T10:29:43;20.50;53.50
10654;DHT22;5375;51.250;6.776;2023-05-07T10:35:08;20.50;53.50
10654;DHT22;5375;51.250;6.776;2023-05-07T10:37:35;20.50;53.50
10654;DHT22;5375;51.250;6.776;2023-05-07T10:40:02;20.50;53.50
10654;DHT22;5375;51.250;6.776;2023-05-07T10:42:27;20.50;53.50
10654;DHT22;5375;51.250;6.776;2023-05-07T10:44:53;20.50;53.50
10654;DHT22;5375;51.250;6.776;2023-05-07T10:47:19;20.50;53.40
10654;DHT22;5375;51.250;6.776;2023-05-07T10:52:21;20.50;53.40
10654;DHT22;5375;51.250;6.776;2023-05-07T10:54:47;20.50;54.10
10654;DHT22;5375;51.250;6.776;2023-05-07T10:57:36;20.50;53.40
10654;DHT22;5375;51.250;6.776;2023-05-07T11:05:30;20.50;53.50
10654;DHT22;5375;51.250;6.776;2023-05-07T11:08:00;20.50;53.40
10654;DHT22;5375;51.250;6.776;2023-05-07T11:10:54;20.50;53.40
10654;DHT22;5375;51.250;6.776;2023-05-07T11:13:43;20.50;53.40
10654;DHT22;5375;51.250;6.776;2023-05-07T11:16:20;20.50;53.30
10654;DHT22;5375;51.250;6.776;2023-05-07T11:18:51;20.50;53.40
10654;DHT22;5375;51.250;6.776;2023-05-07T11:21:37;20.50;53.40
10654;DHT22;5375;51.250;6.776;2023-05-07T11:24:08;20.50;53.40
10654;DHT22;5375;51.250;6.776;2023-05-07T11:26:52;20.50;53.40
10654;DHT22;5375;51.250;6.776;2023-05-07T11:29:20;20.50;53.30
10654;DHT22;5375;51.250;6.776;2023-05-07T11:31:50;20.50;53.40
10654;DHT22;5375;51.250;6.776;2023-05-07T11:34:24;20.50;53.40
10654;DHT22;5375;51.250;6.776;2023-05-07T11:36:50;20.50;53.30
10654;DHT22;5375;51.250;6.776;2023-05-07T11:39:24;20.50;53.30
10654;DHT22;5375;51.250;6.776;2023-05-07T11:41:50;20.60;53.50
10654;DHT22;5375;51.250;6.776;2023-05-07T11:44:15;20.60;53.40
10654;DHT22;5375;51.250;6.776;2023-05-07T11:46:46;20.60;53.50
10654;DHT22;5375;51.250;6.776;2023-05-07T11:49:12;20.60;53.60
10654;DHT22;5375;51.250;6.776;2023-05-07T11:51:38;20.60;53.60
10654;DHT22;5375;51.250;6.776;2023-05-07T11:54:04;20.60;53.60
10654;DHT22;5375;51.250;6.776;2023-05-07T11:56:34;20.70;53.70
10654;DHT22;5375;51.250;6.776;2023-05-07T11:59:04;20.70;53.70
10654;DHT22;5375;51.250;6.776;2023-05-07T12:01:30;18.60;52.90
10654;DHT22;5375;51.250;6.776;2023-05-07T12:03:56;20.70;53.80
10654;DHT22;5375;51.250;6.776;2023-05-07T12:06:21;20.70;53.70
10654;DHT22;5375;51.250;6.776;2023-05-07T12:08:47;20.70;53.80
10654;DHT22;5375;51.250;6.776;2023-05-07T12:11:23;20.70;53.70
10654;DHT22;5375;51.250;6.776;2023-05-07T12:13:49;20.70;53.70
10654;DHT22;5375;51.250;6.776;2023-05-07T12:16:17;20.70;53.80
10654;DHT22;5375;51.250;6.776;2023-05-07T12:18:46;20.70;53.70
10654;DHT22;5375;51.250;6.776;2023-05-07T12:21:15;19.70;53.20
10654;DHT22;5375;51.250;6.776;2023-05-07T12:23:42;20.70;53.70
10654;DHT22;5375;51.250;6.776;2023-05-07T12:26:08;20.60;53.60
10654;DHT22;5375;51.250;6.776;2023-05-07T12:31:41;20.60;53.60
10654;DHT22;5375;51.250;6.776;2023-05-07T12:34:06;20.70;53.70
10654;DHT22;5375;51.250;6.776;2023-05-07T12:36:38;20.70;53.10
10654;DHT22;5375;51.250;6.776;2023-05-07T12:39:06;20.60;53.60
10654;DHT22;5375;51.250;6.776;2023-05-07T12:41:51;20.70;53.60
10654;DHT22;5375;51.250;6.776;2023-05-07T12:44:17;20.60;53.60
10654;DHT22;5375;51.250;6.776;2023-05-07T12:46:43;20.70;53.60
10654;DHT22;5375;51.250;6.776;2023-05-07T12:49:10;20.70;53.60
10654;DHT22;5375;51.250;6.776;2023-05-07T12:51:35;20.70;53.50
10654;DHT22;5375;51.250;6.776;2023-05-07T12:54:01;20.70;53.50
10654;DHT22;5375;51.250;6.776;2023-05-07T12:56:27;20.60;53.50
10654;DHT22;5375;51.250;6.776;2023-05-07T12:58:57;20.70;53.50
10654;DHT22;5375;51.250;6.776;2023-05-07T13:01:29;20.70;53.60
10654;DHT22;5375;51.250;6.776;2023-05-07T13:04:01;20.70;53.50
10654;DHT22;5375;51.250;6.776;2023-05-07T13:06:28;20.70;53.50
10654;DHT22;5375;51.250;6.776;2023-05-07T13:08:53;20.70;53.50
10654;DHT22;5375;51.250;6.776;2023-05-07T13:11:19;20.70;53.50
10654;DHT22;5375;51.250;6.776;2023-05-07T13:13:45;20.70;53.50
10654;DHT22;5375;51.250;6.776;2023-05-07T13:16:11;20.70;53.50
10654;DHT22;5375;51.250;6.776;2023-05-07T13:18:39;20.70;53.50
10654;DHT22;5375;51.250;6.776;2023-05-07T13:21:04;20.30;53.30
10654;DHT22;5375;51.250;6.776;2023-05-07T13:24:07;20.70;53.50
10654;DHT22;5375;51.250;6.776;2023-05-07T13:26:33;20.70;53.50
10654;DHT22;5375;51.250;6.776;2023-05-07T13:28:58;20.70;53.50
10654;DHT22;5375;51.250;6.776;2023-05-07T13:31:24;20.70;53.50
10654;DHT22;5375;51.250;6.776;2023-05-07T13:33:50;20.70;53.50
10654;DHT22;5375;51.250;6.776;2023-05-07T13:36:17;20.70;53.50
10654;DHT22;5375;51.250;6.776;2023-05-07T13:38:43;20.70;53.50
10654;DHT22;5375;51.250;6.776;2023-05-07T13:41:09;20.70;53.50
10654;DHT22;5375;51.250;6.776;2023-05-07T13:43:35;20.70;53.50
10654;DHT22;5375;51.250;6.776;2023-05-07T13:46:00;20.70;53.50
10654;DHT22;5375;51.250;6.776;2023-05-07T13:48:27;20.70;53.50
10654;DHT22;5375;51.250;6.776;2023-05-07T13:50:56;20.70;53.50
10654;DHT22;5375;51.250;6.776;2023-05-07T13:53:22;20.70;53.40
10654;DHT22;5375;51.250;6.776;2023-05-07T13:55:48;20.70;53.50
10654;DHT22;5375;51.250;6.776;2023-05-07T13:58:14;20.70;53.40
10654;DHT22;5375;51.250;6.776;2023-05-07T14:00:41;20.70;53.40
10654;DHT22;5375;51.250;6.776;2023-05-07T14:03:12;20.70;53.50
10654;DHT22;5375;51.250;6.776;2023-05-07T14:05:41;20.70;53.40
10654;DHT22;5375;51.250;6.776;2023-05-07T14:08:08;20.70;53.40
10654;DHT22;5375;51.250;6.776;2023-05-07T14:10:36;20.70;53.40
10654;DHT22;5375;51.250;6.776;2023-05-07T14:13:05;20.70;53.40
10654;DHT22;5375;51.250;6.776;2023-05-07T14:15:33;20.70;53.40
10654;DHT22;5375;51.250;6.776;2023-05-07T14:18:01;20.70;53.40
10654;DHT22;5375;51.250;6.776;2023-05-07T14:20:28;20.70;53.40
10654;DHT22;5375;51.250;6.776;2023-05-07T14:22:56;20.70;53.40
10654;DHT22;5375;51.250;6.776;2023-05-07T14:25:25;20.70;53.50
10654;DHT22;5375;51.250;6.776;2023-05-07T14:27:53;20.70;53.50
10654;DHT22;5375;51.250;6.776;2023-05-07T14:30:19;20.70;53.50
10654;DHT22;5375;51.250;6.776;2023-05-07T14:32:45;20.70;53.50
10654;DHT22;5375;51.250;6.776;2023-05-07T14:35:13;20.70;53.40
10654;DHT22;5375;51.250;6.776;2023-05-07T14:37:39;20.70;53.50
10654;DHT22;5375;51.250;6.776;2023-05-07T14:40:05;20.70;53.50
10654;DHT22;5375;51.250;6.776;2023-05-07T14:42:31;20.70;53.50
10654;DHT22;5375;51.250;6.776;2023-05-07T14:44:57;20.70;53.50
10654;DHT22;5375;51.250;6.776;2023-05-07T14:47:22;20.70;53.50
10654;DHT22;5375;51.250;6.776;2023-05-07T14:49:49;20.70;53.50
10654;DHT22;5375;51.250;6.776;2023-05-07T14:52:15;20.80;53.70
10654;DHT22;5375;51.250;6.776;2023-05-07T14:54:40;20.80;53.70
10654;DHT22;5375;51.250;6.776;2023-05-07T14:57:08;20.80;53.70
10654;DHT22;5375;51.250;6.776;2023-05-07T14:59:34;20.80;53.90
10654;DHT22;5375;51.250;6.776;2023-05-07T15:02:00;20.80;54.00
10654;DHT22;5375;51.250;6.776;2023-05-07T15:04:26;20.80;53.90
10654;DHT22;5375;51.250;6.776;2023-05-07T15:06:55;20.80;53.90
10654;DHT22;5375;51.250;6.776;2023-05-07T15:12:19;20.80;53.30
10654;DHT22;5375;51.250;6.776;2023-05-07T15:14:49;20.80;54.10
10654;DHT22;5375;51.250;6.776;2023-05-07T15:17:15;20.90;53.70
10654;DHT22;5375;51.250;6.776;2023-05-07T15:19:40;23.30;55.60
10654;DHT22;5375;51.250;6.776;2023-05-07T15:22:06;20.90;53.70
10654;DHT22;5375;51.250;6.776;2023-05-07T15:24:31;21.00;54.40
10654;DHT22;5375;51.250;6.776;2023-05-07T15:26:57;20.90;54.70
10654;DHT22;5375;51.250;6.776;2023-05-07T15:29:23;20.90;54.00
10654;DHT22;5375;51.250;6.776;2023-05-07T15:31:49;21.00;54.70
10654;DHT22;5375;51.250;6.776;2023-05-07T15:34:16;20.90;54.80
10654;DHT22;5375;51.250;6.776;2023-05-07T15:36:41;20.90;54.10
10654;DHT22;5375;51.250;6.776;2023-05-07T15:39:07;20.90;54.10
10654;DHT22;5375;51.250;6.776;2023-05-07T15:41:33;20.90;54.80
10654;DHT22;5375;51.250;6.776;2023-05-07T15:43:58;21.00;54.90
10654;DHT22;5375;51.250;6.776;2023-05-07T15:46:25;21.00;55.10
10654;DHT22;5375;51.250;6.776;2023-05-07T15:48:51;20.90;55.10
10654;DHT22;5375;51.250;6.776;2023-05-07T15:51:17;21.00;55.00
10654;DHT22;5375;51.250;6.776;2023-05-07T15:53:43;21.00;55.00
10654;DHT22;5375;51.250;6.776;2023-05-07T15:56:09;21.00;55.00
10654;DHT22;5375;51.250;6.776;2023-05-07T15:58:35;21.00;55.20
10654;DHT22;5375;51.250;6.776;2023-05-07T16:01:02;21.00;55.40
10654;DHT22;5375;51.250;6.776;2023-05-07T16:03:28;21.00;55.20
10654;DHT22;5375;51.250;6.776;2023-05-07T16:05:54;21.00;55.20
10654;DHT22;5375;51.250;6.776;2023-05-07T16:08:30;21.00;55.20
10654;DHT22;5375;51.250;6.776;2023-05-07T16:10:56;21.00;54.60
10654;DHT22;5375;51.250;6.776;2023-05-07T16:13:22;21.00;55.20
10654;DHT22;5375;51.250;6.776;2023-05-07T16:15:49;21.00;55.40
10654;DHT22;5375;51.250;6.776;2023-05-07T16:18:14;21.00;54.70
10654;DHT22;5375;51.250;6.776;2023-05-07T16:20:41;21.00;54.70